Main page
METAR-TAF:

METAR-TAF

Airports :

Fritzlar, Germany

Fritzlar Air Base

latitude: 51-07N, longitude: 009-17E, elevation: 172 m

Current weather observation

The report was made 52 minutes ago, at 10:20 UTC
Wind 18 kt from the South/Southwest with gusts up to 28 kt
Temperature 10°C
Humidity 66%
Pressure 1005 hPa
Visibility 10 km or more
Few clouds at a height of 5000 ft
Broken clouds at a height of 25000 ft

METAR: ETHF 231020Z 20018G28KT 9999 FEW050 BKN250 10/04 Q1005 BLU+BLU+

Time: 12:12 (11:12 UTC)

Forecast

The report was made 2 hours and 54 minutes ago, at 08:18 UTC
Forecast valid from 23 at 09 UTC to 23 at 18 UTC
Wind 22 kt from the South/Southwest with gusts up to 32 kt
Visibility 10 km or more
Scattered clouds at a height of 12000 ft
Broken clouds at a height of 20000 ft

TAF: ETHF 230818Z 2309/2318 20022G32KT 9999 NSW SCT120 BKN200

Weather observations and forecasts of more than 4000 airports (METAR and TAF reports).

The available stations are represented by yellow and red dots on the map.

Hover mouse over dot to see the name of the station.

Then click to see weather observations and forecasts.

To change the map : click on the green buttons with a black cross to zoom in, on the green button with a dash to zoom out, or on the green arrows for adjacent maps.


METAR-TAF: